createdAt,value
2022-12-23T00:00:30.919Z,94883.84
2022-12-23T00:03:35.777Z,94879.09
2022-12-23T00:06:38.771Z,94884.16
2022-12-23T00:09:41.728Z,94885.25
2022-12-23T00:13:02.147Z,94883.66
2022-12-23T00:16:08.081Z,94889.75
2022-12-23T00:19:12.544Z,94887.91
2022-12-23T00:22:15.547Z,94891.34
2022-12-23T00:25:19.130Z,94903.88
2022-12-23T00:28:24.583Z,94904.66
2022-12-23T00:31:27.739Z,94901.22
2022-12-23T00:34:32.167Z,94908.38
2022-12-23T00:37:35.175Z,94893.16
2022-12-23T00:40:55.913Z,94906.31
2022-12-23T00:43:58.990Z,94897.72
2022-12-23T00:47:02.005Z,94893.03
2022-12-23T00:50:06.415Z,94887.41
2022-12-23T00:53:09.421Z,94891.44
2022-12-23T00:56:12.370Z,94882.38
2022-12-23T00:59:15.434Z,94887.69
2022-12-23T01:02:35.930Z,94877.06
2022-12-23T01:05:40.394Z,94834.94
2022-12-23T01:08:43.388Z,94860.00
2022-12-23T01:11:46.478Z,94872.72
2022-12-23T01:14:49.853Z,94882.06
2022-12-23T01:17:52.952Z,94876.75
2022-12-23T01:20:57.397Z,94871.56
2022-12-23T01:24:00.610Z,94865.91
2022-12-23T01:27:03.647Z,94869.38
2022-12-23T01:30:07.976Z,94874.72
2022-12-23T01:33:10.973Z,94885.34
2022-12-23T01:39:18.640Z,94885.34
2022-12-23T01:45:42.228Z,94872.34
2022-12-23T01:48:48.560Z,94863.59
2022-12-23T01:51:53.486Z,94861.41
2022-12-23T01:54:57.429Z,94860.94
2022-12-23T01:58:09.875Z,94860.94
2022-12-23T02:01:30.972Z,94858.75
2022-12-23T02:04:34.063Z,94843.56
2022-12-23T02:08:10.407Z,94838.06
2022-12-23T02:11:32.938Z,94839.66
2022-12-23T02:15:08.046Z,94826.34
2022-12-23T02:18:27.605Z,94815.72
2022-12-23T02:22:03.063Z,94815.72
2022-12-23T02:25:30.329Z,94822.13
2022-12-23T02:29:06.913Z,94810.69
2022-12-23T02:32:18.820Z,94817.59
2022-12-23T02:35:30.504Z,94821.03
2022-12-23T02:38:40.320Z,94826.81
2022-12-23T02:45:00.216Z,94815.53
2022-12-23T02:48:10.100Z,94815.72
2022-12-23T02:51:15.855Z,94823.69
2022-12-23T02:54:26.131Z,94818.38
2022-12-23T02:57:35.423Z,94824.16
2022-12-23T03:00:41.419Z,94815.53
2022-12-23T03:03:48.863Z,94814.13
2022-12-23T03:06:55.544Z,94816.78
2022-12-23T03:13:10.353Z,94832.75
2022-12-23T03:16:21.901Z,94828.53
2022-12-23T03:19:33.116Z,94827.44
2022-12-23T03:22:40.246Z,94820.25
2022-12-23T03:25:51.343Z,94823.69
2022-12-23T03:28:59.897Z,94818.38
2022-12-23T03:35:13.589Z,94818.38
2022-12-23T03:38:19.610Z,94819.16
2022-12-23T03:41:28.991Z,94818.84
2022-12-23T03:44:36.888Z,94824.16
2022-12-23T03:47:45.711Z,94814.44
2022-12-23T03:50:54.989Z,94835.28
2022-12-23T03:54:02.665Z,94828.41
2022-12-23T03:57:08.732Z,94828.41
2022-12-23T04:00:14.020Z,94835.28
2022-12-23T04:03:23.416Z,94832.16
2022-12-23T04:06:31.627Z,94821.88
2022-12-23T04:09:36.174Z,94835.06
2022-12-23T04:12:40.440Z,94834.16
2022-12-23T04:15:43.958Z,94830.41
2022-12-23T04:18:46.999Z,94834.63
2022-12-23T04:21:51.400Z,94817.09
2022-12-23T04:24:54.446Z,94833.53
2022-12-23T04:27:57.502Z,94824.31
2022-12-23T04:31:00.553Z,94830.09
2022-12-23T04:34:03.605Z,94837.00
2022-12-23T04:37:08.137Z,94830.88
2022-12-23T04:40:11.512Z,94830.09
2022-12-23T04:43:14.717Z,94806.13
2022-12-23T04:46:17.813Z,94811.00
2022-12-23T04:49:20.908Z,94819.28
2022-12-23T04:52:25.523Z,94828.66
2022-12-23T04:55:28.537Z,94833.31
2022-12-23T04:58:31.631Z,94822.19
2022-12-23T05:01:34.659Z,94812.44
2022-12-23T05:04:38.064Z,94831.94
2022-12-23T05:07:42.445Z,94842.44
2022-12-23T05:10:46.143Z,94846.84
2022-12-23T05:13:49.197Z,94850.53
2022-12-23T05:16:52.257Z,94839.47
2022-12-23T05:19:56.603Z,94835.72
2022-12-23T05:23:00.928Z,94844.59
2022-12-23T05:26:03.951Z,94846.78
2022-12-23T05:29:06.978Z,94846.91
2022-12-23T05:32:10.108Z,94862.09
2022-12-23T05:35:13.248Z,94859.25
2022-12-23T05:38:17.686Z,94865.69
2022-12-23T05:41:20.788Z,94863.81
2022-12-23T05:44:23.822Z,94864.09
2022-12-23T05:47:26.848Z,94856.41
2022-12-23T05:50:29.999Z,94856.41
2022-12-23T05:53:34.511Z,94849.50
2022-12-23T05:56:37.443Z,94852.16
2022-12-23T05:59:40.370Z,94864.69
2022-12-23T06:02:46.123Z,94868.13
2022-12-23T06:05:53.334Z,94863.91
2022-12-23T06:09:00.060Z,94853.88
2022-12-23T06:12:03.348Z,94857.78
2022-12-23T06:15:07.364Z,94868.44
2022-12-23T06:18:10.622Z,94858.88
2022-12-23T06:21:13.663Z,94858.88
2022-12-23T06:24:18.054Z,94865.00
2022-12-23T06:27:21.150Z,94872.19
2022-12-23T06:30:24.202Z,94871.09
2022-12-23T06:33:27.256Z,94873.75
2022-12-23T06:36:30.355Z,94866.88
2022-12-23T06:39:35.057Z,94858.88
2022-12-23T06:42:38.139Z,94869.53
2022-12-23T06:45:41.676Z,94871.41
2022-12-23T06:48:44.673Z,94872.19
2022-12-23T06:51:47.735Z,94864.22
2022-12-23T06:54:52.131Z,94864.22
2022-12-23T06:57:55.178Z,94877.22
2022-12-23T07:00:58.214Z,94881.44
2022-12-23T07:04:01.996Z,94872.38
2022-12-23T07:07:05.079Z,94877.69
2022-12-23T07:10:10.935Z,94878.00
2022-12-23T07:13:14.098Z,94884.88
2022-12-23T07:16:17.477Z,94883.00
2022-12-23T07:19:20.556Z,94878.78
2022-12-23T07:22:23.537Z,94883.31
2022-12-23T07:25:28.081Z,94877.69
2022-12-23T07:28:31.136Z,94885.41
2022-12-23T07:31:35.476Z,94882.78
2022-12-23T07:34:41.099Z,94888.75
2022-12-23T07:37:44.279Z,94895.16
2022-12-23T07:40:51.325Z,94889.19
2022-12-23T07:43:54.832Z,94891.38
2022-12-23T07:46:57.839Z,94893.72
2022-12-23T07:50:00.985Z,94896.06
2022-12-23T07:53:04.016Z,94896.88
2022-12-23T07:56:09.375Z,94900.63
2022-12-23T07:59:12.396Z,94903.75
2022-12-23T08:02:15.650Z,94922.09
2022-12-23T08:05:18.990Z,94905.16
2022-12-23T08:08:22.107Z,94905.81
2022-12-23T08:11:26.517Z,94912.13
2022-12-23T08:14:29.510Z,94915.91
2022-12-23T08:17:33.047Z,94914.69
2022-12-23T08:20:36.033Z,94911.59
2022-12-23T08:23:39.563Z,94911.47
2022-12-23T08:26:43.979Z,94910.53
2022-12-23T08:29:47.607Z,94897.69
2022-12-23T08:32:50.611Z,94912.31
2022-12-23T08:35:55.780Z,94910.59
2022-12-23T08:39:00.608Z,94913.44
2022-12-23T08:42:05.216Z,94907.00
2022-12-23T08:45:09.203Z,94904.53
2022-12-23T08:48:12.232Z,94901.31
2022-12-23T08:51:17.155Z,94902.84
2022-12-23T08:54:20.594Z,94900.66
2022-12-23T08:57:24.969Z,94903.81
2022-12-23T09:00:28.053Z,94893.78
2022-12-23T09:03:31.310Z,94890.63
2022-12-23T09:06:37.278Z,94899.88
2022-12-23T09:09:40.318Z,94891.09
2022-12-23T09:12:44.692Z,94896.91
2022-12-23T09:15:48.013Z,94894.25
2022-12-23T09:18:51.076Z,94895.81
2022-12-23T09:21:54.251Z,94890.50
2022-12-23T09:25:03.144Z,94887.81
2022-12-23T09:28:10.832Z,94893.16
2022-12-23T09:31:14.387Z,94894.72
2022-12-23T09:34:17.425Z,94888.00
2022-12-23T09:37:20.403Z,94885.97
2022-12-23T09:40:23.883Z,94889.28
2022-12-23T09:43:40.133Z,94894.78
2022-12-23T09:46:48.947Z,94889.78
2022-12-23T09:49:54.777Z,94883.34
2022-12-23T09:53:03.056Z,94885.53
2022-12-23T09:56:15.954Z,94884.91
2022-12-23T09:59:32.269Z,94879.59
2022-12-23T10:02:48.028Z,94884.44
2022-12-23T10:06:02.523Z,94885.22
2022-12-23T10:09:08.615Z,94874.56
2022-12-23T10:12:27.318Z,94860.75
2022-12-23T10:15:38.354Z,94884.91
2022-12-23T10:18:51.417Z,94875.97
2022-12-23T10:22:01.318Z,94862.19
2022-12-23T10:25:06.799Z,94846.50
2022-12-23T10:28:11.119Z,94869.69
2022-12-23T10:34:50.601Z,94855.44
2022-12-23T10:37:59.077Z,94857.16
2022-12-23T10:41:11.250Z,94839.88
2022-12-23T10:44:37.714Z,94846.16
2022-12-23T10:47:51.090Z,94841.44
2022-12-23T10:51:00.526Z,94834.84
2022-12-23T10:54:07.949Z,94805.31
2022-12-23T10:57:11.673Z,94830.94
2022-12-23T11:00:37.819Z,94824.50
2022-12-23T11:03:47.657Z,94831.41
2022-12-23T11:07:18.070Z,94826.38
2022-12-23T11:10:20.484Z,94829.84
2022-12-23T11:13:37.094Z,94806.41
2022-12-23T11:16:47.175Z,94827.28
2022-12-23T11:20:09.770Z,94823.03
2022-12-23T11:23:26.880Z,94815.34
2022-12-23T11:26:30.077Z,94806.41
2022-12-23T11:29:36.604Z,94804.69
2022-12-23T11:32:39.988Z,94817.06
2022-12-23T11:35:45.620Z,94796.19
2022-12-23T11:38:51.155Z,94824.91
2022-12-23T11:42:02.842Z,94821.75
2022-12-23T11:45:09.246Z,94824.75
2022-12-23T11:48:29.929Z,94828.78
2022-12-23T11:51:34.697Z,94829.56
2022-12-23T11:54:38.984Z,94827.22
2022-12-23T11:57:45.712Z,94829.88
2022-12-23T12:00:56.038Z,94829.09
2022-12-23T12:04:03.856Z,94812.16
2022-12-23T12:07:13.326Z,94807.16
2022-12-23T12:10:20.017Z,94816.09
2022-12-23T12:13:27.672Z,94816.09
2022-12-23T12:16:48.268Z,94812.94
2022-12-23T12:20:04.938Z,94809.19
2022-12-23T12:23:16.067Z,94812.94
2022-12-23T12:26:26.724Z,94799.00
2022-12-23T12:29:34.680Z,94799.63
2022-12-23T12:32:48.095Z,94804.16
2022-12-23T12:36:04.964Z,94800.72
2022-12-23T12:39:19.344Z,94804.47
2022-12-23T12:42:30.274Z,94799.16
2022-12-23T12:45:40.120Z,94809.81
2022-12-23T12:48:49.949Z,94807.94
2022-12-23T12:51:59.542Z,94802.91
2022-12-23T12:55:13.887Z,94801.81
2022-12-23T12:58:21.624Z,94797.13
2022-12-23T13:01:44.216Z,94800.56
2022-12-23T13:05:06.595Z,94796.03
2022-12-23T13:08:28.944Z,94793.34
2022-12-23T13:11:45.277Z,94801.34
2022-12-23T13:15:02.196Z,94799.31
2022-12-23T13:18:26.668Z,94789.94
2022-12-23T13:21:34.097Z,94786.94
2022-12-23T13:24:47.451Z,94807.69
2022-12-23T13:27:58.471Z,94797.03
2022-12-23T13:31:08.169Z,94794.84
2022-12-23T13:34:27.373Z,94782.13
2022-12-23T13:37:37.678Z,94794.03
2022-12-23T13:40:49.259Z,94787.00
2022-12-23T13:43:57.629Z,94789.50
2022-12-23T13:47:13.827Z,94768.00
2022-12-23T13:50:24.659Z,94776.13
2022-12-23T13:53:41.238Z,94785.38
2022-12-23T13:56:50.432Z,94777.22
2022-12-23T14:00:06.043Z,94779.25
2022-12-23T14:03:34.192Z,94794.31
2022-12-23T14:06:45.146Z,94784.28
2022-12-23T14:09:53.273Z,94785.84
2022-12-23T14:13:03.083Z,94790.38
2022-12-23T14:16:36.330Z,94791.00
2022-12-23T14:19:56.960Z,94796.34
2022-12-23T14:23:10.979Z,94792.88
2022-12-23T14:26:27.951Z,94778.44
2022-12-23T14:29:43.164Z,94788.66
2022-12-23T14:32:51.485Z,94785.84
2022-12-23T14:35:58.233Z,94787.88
2022-12-23T14:39:32.884Z,94791.50
2022-12-23T14:42:37.861Z,94797.13
2022-12-23T14:45:43.925Z,94790.13
2022-12-23T14:49:38.893Z,94803.44
2022-12-23T14:53:00.338Z,94804.22
2022-12-23T14:56:21.780Z,94809.22
2022-12-23T14:59:31.761Z,94803.72
2022-12-23T15:02:38.332Z,94806.69
2022-12-23T15:05:41.979Z,94804.97
2022-12-23T15:08:48.845Z,94805.44
2022-12-23T15:11:52.808Z,94815.16
2022-12-23T15:14:59.199Z,94812.22
2022-12-23T15:18:03.781Z,94807.66
2022-12-23T15:21:13.391Z,94808.59
2022-12-23T15:24:21.195Z,94809.69
2022-12-23T15:27:27.953Z,94820.84
2022-12-23T15:30:36.327Z,94815.34
2022-12-23T15:37:03.240Z,94826.47
2022-12-23T15:40:23.555Z,94818.31
2022-12-23T15:43:26.652Z,94831.97
2022-12-23T15:46:32.586Z,94834.63
2022-12-23T15:49:35.761Z,94833.84
2022-12-23T15:52:42.255Z,94835.41
2022-12-23T15:55:48.425Z,94844.50
2022-12-23T15:58:52.135Z,94839.63
2022-12-23T16:01:55.546Z,94847.94
2022-12-23T16:05:01.789Z,94846.38
2022-12-23T16:08:12.840Z,94844.97
2022-12-23T16:11:19.507Z,94845.28
2022-12-23T16:14:34.300Z,94842.31
2022-12-23T16:17:38.045Z,94842.44
2022-12-23T16:20:43.265Z,94836.44
2022-12-23T16:23:51.462Z,94845.72
2022-12-23T16:26:56.973Z,94844.16
2022-12-23T16:30:03.133Z,94824.53
2022-12-23T16:33:08.620Z,94841.00
2022-12-23T16:36:19.525Z,94846.63
2022-12-23T16:39:23.990Z,94850.38
2022-12-23T16:42:28.399Z,94836.44
2022-12-23T16:45:33.963Z,94849.59
2022-12-23T16:48:40.192Z,94847.56
2022-12-23T16:51:43.867Z,94857.91
2022-12-23T16:54:46.887Z,94863.53
2022-12-23T16:57:51.579Z,94863.84
2022-12-23T17:00:55.857Z,94857.75
2022-12-23T17:03:59.082Z,94858.53
2022-12-23T17:07:02.125Z,94869.47
2022-12-23T17:10:05.758Z,94866.81
2022-12-23T17:13:19.573Z,94874.81
2022-12-23T17:16:24.522Z,94865.25
2022-12-23T17:19:29.251Z,94867.44
2022-12-23T17:22:35.443Z,94869.78
2022-12-23T17:25:38.475Z,94857.81
2022-12-23T17:28:42.946Z,94877.00
2022-12-23T17:31:46.988Z,94877.31
2022-12-23T17:34:50.041Z,94887.63
2022-12-23T17:37:54.114Z,94860.31
2022-12-23T17:40:59.185Z,94884.50
2022-12-23T17:44:03.592Z,94866.72
2022-12-23T17:47:11.759Z,94885.59
2022-12-23T17:50:14.816Z,94878.19
2022-12-23T17:53:19.086Z,94872.09
2022-12-23T17:56:23.173Z,94864.09
2022-12-23T17:59:27.514Z,94875.53
2022-12-23T18:02:35.241Z,94891.50
2022-12-23T18:05:38.366Z,94889.22
2022-12-23T18:08:41.519Z,94893.31
2022-12-23T18:11:47.248Z,94899.09
2022-12-23T18:14:51.815Z,94893.97
2022-12-23T18:17:54.849Z,94892.09
2022-12-23T18:20:58.401Z,94897.22
2022-12-23T18:24:01.542Z,94902.38
2022-12-23T18:27:10.313Z,94901.13
2022-12-23T18:30:15.250Z,94899.06
2022-12-23T18:33:19.374Z,94907.06
2022-12-23T18:36:24.585Z,94902.84
2022-12-23T18:39:27.634Z,94880.81
2022-12-23T18:42:30.664Z,94895.88
2022-12-23T18:45:37.727Z,94903.44
2022-12-23T18:48:40.837Z,94914.28
2022-12-23T18:51:43.827Z,94912.25
2022-12-23T18:54:46.881Z,94914.97
2022-12-23T18:57:50.720Z,94905.09
2022-12-23T19:00:55.128Z,94914.84
2022-12-23T19:03:58.118Z,94907.78
2022-12-23T19:07:01.126Z,94899.94
2022-12-23T19:10:06.708Z,94901.69
2022-12-23T19:13:10.383Z,94904.81
2022-12-23T19:16:16.497Z,94887.09
2022-12-23T19:19:19.539Z,94893.88
2022-12-23T19:22:22.614Z,94893.88
2022-12-23T19:25:25.659Z,94889.03
2022-12-23T19:28:28.701Z,94891.22
2022-12-23T19:31:34.161Z,94892.78
2022-12-23T19:34:37.405Z,94885.59
2022-12-23T19:37:40.534Z,94856.38
2022-12-23T19:40:43.695Z,94882.34
2022-12-23T19:43:47.540Z,94878.88
2022-12-23T19:46:52.161Z,94876.81
2022-12-23T19:49:55.229Z,94880.69
2022-12-23T19:52:58.357Z,94877.72
2022-12-23T19:56:03.831Z,94889.53
2022-12-23T19:59:06.950Z,94886.72
2022-12-23T20:02:15.110Z,94889.41
2022-12-23T20:05:18.445Z,94888.91
2022-12-23T20:08:21.490Z,94897.84
2022-12-23T20:11:26.390Z,94897.84
2022-12-23T20:14:33.832Z,94897.38
2022-12-23T20:17:39.137Z,94897.22
2022-12-23T20:20:45.091Z,94897.53
2022-12-23T20:23:48.140Z,94898.47
2022-12-23T20:26:51.203Z,94906.16
2022-12-23T20:29:54.209Z,94913.38
2022-12-23T20:32:58.804Z,94904.44
2022-12-23T20:36:02.974Z,94899.88
2022-12-23T20:39:06.441Z,94907.56
2022-12-23T20:42:09.549Z,94909.13
2022-12-23T20:45:13.540Z,94930.44
2022-12-23T20:48:18.436Z,94920.88
2022-12-23T20:51:24.167Z,94917.56
2022-12-23T20:54:32.561Z,94929.97
2022-12-23T20:57:36.783Z,94926.44
2022-12-23T21:00:39.791Z,94926.75
2022-12-23T21:03:44.241Z,94921.50
2022-12-23T21:06:47.653Z,94928.78
2022-12-23T21:09:50.647Z,94937.06
2022-12-23T21:12:53.680Z,94932.03
2022-12-23T21:16:01.843Z,94922.03
2022-12-23T21:19:07.337Z,94922.50
2022-12-23T21:22:10.382Z,94923.47
2022-12-23T21:25:13.428Z,94932.25
2022-12-23T21:28:16.562Z,94926.75
2022-12-23T21:31:22.076Z,94912.97
2022-12-23T21:34:26.596Z,94927.69
2022-12-23T21:37:29.726Z,94913.31
2022-12-23T21:40:32.823Z,94913.13
2022-12-23T21:43:36.157Z,94918.13
2022-12-23T21:46:39.139Z,94917.50
2022-12-23T21:49:44.266Z,94915.56
2022-12-23T21:52:47.192Z,94914.59
2022-12-23T21:55:50.238Z,94912.09
2022-12-23T21:58:56.450Z,94898.13
2022-12-23T22:01:59.564Z,94895.47
2022-12-23T22:05:04.028Z,94901.38
2022-12-23T22:08:07.127Z,94909.66
2022-12-23T22:11:11.341Z,94916.09
2022-12-23T22:14:16.234Z,94902.28
2022-12-23T22:17:19.252Z,94894.63
2022-12-23T22:20:23.770Z,94898.69
2022-12-23T22:23:26.722Z,94894.91
2022-12-23T22:26:32.350Z,94890.22
2022-12-23T22:29:35.314Z,94902.13
2022-12-23T22:32:42.389Z,94891.47
2022-12-23T22:35:55.821Z,94898.38
2022-12-23T22:39:00.677Z,94900.25
2022-12-23T22:42:03.684Z,94906.66
2022-12-23T22:45:09.293Z,94895.84
2022-12-23T22:48:12.432Z,94905.41
2022-12-23T22:51:18.961Z,94889.44
2022-12-23T22:54:21.996Z,94899.28
2022-12-23T22:57:25.072Z,94910.25
2022-12-23T23:00:28.071Z,94902.25
2022-12-23T23:03:31.767Z,94902.56
2022-12-23T23:06:38.692Z,94907.88
2022-12-23T23:09:41.781Z,94897.03
2022-12-23T23:12:44.870Z,94889.84
2022-12-23T23:15:48.908Z,94902.06
2022-12-23T23:18:52.441Z,94899.41
2022-12-23T23:21:56.851Z,94901.28
2022-12-23T23:24:59.894Z,94895.63
2022-12-23T23:28:02.979Z,94890.31
2022-12-23T23:31:39.696Z,94888.44
2022-12-23T23:34:29.653Z,94892.50
2022-12-23T23:37:33.986Z,94904.41
2022-12-23T23:40:37.391Z,94892.97
2022-12-23T23:43:40.448Z,94899.91
2022-12-23T23:46:43.417Z,94877.28
2022-12-23T23:49:46.477Z,94896.72
2022-12-23T23:52:50.973Z,94895.16
2022-12-23T23:55:53.964Z,94897.50
2022-12-23T23:58:57.768Z,94886.84
